Share

Shiriya, Japan

Hakodate (RJCH) Elev 118 ft | 41.77 °N, 140.82 °E | Change Station

Current weather conditions updated 1 hour ago

Partly Cloudy
Partly Cloudy
41 °F
Feels Like 37 °F
N
6
Wind Variable Wind from SSE
Sunrise 4:47 AM
Sunset 6:19 PM
Moon Waning Gibbous

Today is forecast to be nearly the same temperature as yesterday.

Pressure 30.21 in
Visibility 6.2 miles
Clouds Few 4000 ft
Windchill 37 °F
Dew Point 27 °F
Humidity 57%
Rainfall 0.00 in
Snow Depth Not available.
UV 3 out of 16
Pollen Not available.
Air Quality Not available.
Flu Activity Not available.
METAR RJCH 192300Z 16005KT 130V190 9999 FEW040 05/M03 Q1023

More Conditions Fewer Conditions

Pressure 30.21 in
Visibility 6.2 miles
Clouds Few 4000 ft
Windchill 37 °F
Dew Point 27 °F
Humidity 57%
Rainfall 0.00 in
Snow Depth Not available.
UV 3 out of 16
Pollen Not available.
Air Quality Not available.
Flu Activity Not available.
METAR RJCH 192300Z 16005KT 130V190 9999 FEW040 05/M03 Q1023

More Conditions Fewer Conditions

10-Day Weather Forecast

Almanac

Astronomy

Apr. 20, 2014 Rise Set
Actual Time 4:47 AM JST 6:19 PM JST
Civil Twilight 4:18 AM JST 6:48 PM JST
Nautical Twilight 3:43 AM JST 7:23 PM JST
Astronomical Twilight 3:06 AM JST 8:00 PM JST
Moon 11:19 PM JST 8:26 AM JST
Length of Visible Light 14h 29m
Length of Day
13h 31m
Tomorrow will be 2m 35s longer.
Waning Gibbous, 75% of the Moon is Illuminated
Apr 19
Waning Gibbous
Apr 22
Last Quarter
Apr 29
New
May 6
First Quarter
May 14
Full

Yesterday's Extremes

Country Highs Country Lows

Community

  • New Day
    New Day
  • Happy Easter!
    Happy Easter!
  • poppy bloom near Mazar-e-Sharif
    poppy bloom near Mazar-e-Sharif
  • Happy Easter WU friends!!!!
    Happy Easter WU friends!!!!
  • Skirting the Horizon
    Skirting the Horizon

WunderPhotos

Upload Photos

1,702,976 photos uploaded!

WunderBlogs® & News

Nearby

Snow Depth

Not available.

Coastal Water Temperatures

Place Temperature
No Stations Reporting

Earthquake Activity

City Distance Mag. Time & Date
No recent earthquake activity has been reported nearby.
Minimum magnitude displayed is 2.5.

Nearby Weather Stations

There are no personal weather stations in this area.

What do you think?

We're not finished. Please let us know what you like, what you don't like, and what you are still missing.